Date,TemperatureHighF,TemperatureAvgF,TemperatureLowF,DewpointHighF,DewpointAvgF,DewpointLowF,HumidityHigh,HumidityAvg,HumidityLow,PressureMaxIn,PressureMinIn,WindSpeedMaxMPH,WindSpeedAvgMPH,GustSpeedMaxMPH,PrecipitationSumIn
2013-2-1,25,21,18,15,12,8,77,67,57,30.19,29.77,20,7,20,0.00
2013-2-2,25,19,14,17,12,7,81,74,64,30.19,29.95,14,4,14,0.00
2013-2-3,29,18,6,19,11,1,80,74,57,29.96,29.79,9,1,9,0.00
2013-2-4,25,20,16,15,12,8,79,71,56,29.98,29.87,15,3,15,0.00
2013-2-5,31,23,15,20,16,10,80,74,61,29.93,29.83,12,2,12,0.00
2013-2-6,31,26,17,22,17,11,80,70,58,30.36,29.89,34,5,34,0.00
2013-2-7,40,27,15,23,17,9,79,66,46,30.35,30.03,9,2,10,0.00
2013-2-8,35,28,18,30,22,12,81,76,69,30.14,29.69,31,2,31,0.03
2013-2-9,25,19,11,17,13,6,81,78,70,30.40,30.14,7,2,7,0.00
2013-2-10,43,26,7,31,18,2,82,71,53,30.39,29.91,14,2,14,0.25
2013-2-11,51,39,32,41,31,25,82,73,54,29.91,29.59,26,9,26,0.11
2013-2-12,32,32,32,28,26,26,82,79,78,29.95,29.77,25,10,25,0.00
2013-2-13,39,31,24,27,24,19,81,77,62,29.95,29.74,6,4,34,0.00
2013-2-14,43,35,25,32,28,20,82,75,61,29.91,29.79,6,2,13,0.08
2013-2-15,38,35,34,32,29,28,79,77,75,29.92,29.79,8,6,22,0.00
2013-2-16,33,26,20,21,16,11,77,65,52,30.06,29.92,8,2,8,0.00
2013-2-17,22,18,13,17,10,4,81,71,60,30.29,29.91,16,6,16,0.03
2013-2-18,38,24,9,24,12,4,79,62,41,30.27,29.87,8,2,9,0.00
2013-2-19,43,35,24,36,27,18,83,73,57,29.87,29.57,25,8,25,0.33
2013-2-20,25,22,19,20,14,11,84,73,59,30.12,29.80,23,11,23,0.00
2013-2-21,24,20,17,14,13,10,78,72,63,30.40,30.09,22,6,22,0.00
2013-2-22,36,30,20,29,22,14,79,74,57,30.39,29.96,13,4,13,0.03
2013-2-23,40,34,31,32,28,24,80,78,72,30.06,29.89,13,4,13,0.00
2013-2-24,32,31,29,26,24,24,82,78,73,30.11,29.88,17,6,17,0.00
2013-2-25,37,31,24,29,25,19,83,78,70,30.24,30.11,12,2,12,0.00
2013-2-26,45,34,22,31,25,18,85,73,50,30.22,29.71,18,5,18,0.83
2013-2-27,38,36,34,33,31,29,85,83,82,29.72,29.59,14,3,14,0.44
2013-2-28,35,33,32,30,29,28,85,84,83,29.78,29.57,10,4,10,0.08